createdAt,value
2019-05-22T00:01:25.241Z,100240.50
2019-05-22T00:04:00.578Z,100244.36
2019-05-22T00:06:36.669Z,100246.00
2019-05-22T00:09:08.394Z,100250.34
2019-05-22T00:11:37.849Z,100245.93
2019-05-22T00:14:09.467Z,100242.04
2019-05-22T00:16:39.834Z,100249.21
2019-05-22T00:19:09.887Z,100255.09
2019-05-22T00:21:40.298Z,100253.13
2019-05-22T00:24:11.082Z,100254.05
2019-05-22T00:26:40.640Z,100255.31
2019-05-22T00:29:10.465Z,100259.28
2019-05-22T00:31:40.051Z,100267.51
2019-05-22T00:34:11.429Z,100255.91
2019-05-22T00:36:40.997Z,100262.70
2019-05-22T00:39:12.475Z,100263.20
2019-05-22T00:41:42.931Z,100259.35
2019-05-22T00:44:13.996Z,100260.78
2019-05-22T00:46:43.832Z,100263.39
2019-05-22T00:49:13.818Z,100265.88
2019-05-22T00:51:54.848Z,100269.55
2019-05-22T00:54:36.958Z,100269.29
2019-05-22T00:57:15.013Z,100264.66
2019-05-22T00:59:45.894Z,100265.83
2019-05-22T01:02:18.977Z,100267.03
2019-05-22T01:04:50.700Z,100265.09
2019-05-22T01:07:21.411Z,100270.91
2019-05-22T01:09:55.678Z,100275.59
2019-05-22T01:12:29.337Z,100270.64
2019-05-22T01:15:03.850Z,100271.16
2019-05-22T01:17:34.115Z,100273.02
2019-05-22T01:20:05.037Z,100276.97
2019-05-22T01:22:36.315Z,100267.95
2019-05-22T01:25:06.534Z,100272.93
2019-05-22T01:27:38.780Z,100273.71
2019-05-22T01:30:11.877Z,100279.37
2019-05-22T01:32:47.749Z,100278.16
2019-05-22T01:35:20.907Z,100281.77
2019-05-22T01:37:51.828Z,100276.89
2019-05-22T01:40:27.854Z,100276.59
2019-05-22T01:42:59.181Z,100275.92
2019-05-22T01:45:29.506Z,100276.59
2019-05-22T01:48:03.070Z,100281.97
2019-05-22T01:50:55.410Z,100280.92
2019-05-22T01:53:29.326Z,100278.96
2019-05-22T01:56:03.150Z,100286.39
2019-05-22T01:58:34.360Z,100289.01
2019-05-22T02:01:06.959Z,100283.70
2019-05-22T02:03:36.836Z,100287.22
2019-05-22T02:06:07.615Z,100282.05
2019-05-22T02:08:41.543Z,100280.48
2019-05-22T02:11:12.942Z,100270.77
2019-05-22T02:13:48.663Z,100278.55
2019-05-22T02:16:18.637Z,100276.81
2019-05-22T02:18:49.321Z,100279.28
2019-05-22T02:21:19.051Z,100272.95
2019-05-22T02:23:48.554Z,100272.95
2019-05-22T02:26:19.783Z,100276.81
2019-05-22T02:28:49.677Z,100278.66
2019-05-22T02:31:23.363Z,100281.67
2019-05-22T02:34:08.017Z,100281.98
2019-05-22T02:36:39.664Z,100284.89
2019-05-22T02:39:23.540Z,100285.81
2019-05-22T02:41:58.786Z,100284.59
2019-05-22T02:44:29.892Z,100286.65
2019-05-22T02:47:16.416Z,100285.36
2019-05-22T02:49:32.649Z,100290.41
2019-05-22T02:52:03.736Z,100284.73
2019-05-22T02:54:33.460Z,100294.31
2019-05-22T02:57:03.686Z,100289.05
2019-05-22T02:59:33.380Z,100292.97
2019-05-22T03:02:04.116Z,100282.53
2019-05-22T03:04:53.474Z,100284.59
2019-05-22T03:07:23.940Z,100282.95
2019-05-22T03:09:53.557Z,100287.50
2019-05-22T03:12:24.250Z,100292.25
2019-05-22T03:14:55.150Z,100294.64
2019-05-22T03:17:30.195Z,100290.55
2019-05-22T03:19:59.901Z,100297.92
2019-05-22T03:22:36.825Z,100294.30
2019-05-22T03:25:09.944Z,100292.25
2019-05-22T03:27:44.723Z,100301.03
2019-05-22T03:30:19.824Z,100292.33
2019-05-22T03:32:49.686Z,100302.38
2019-05-22T03:35:20.448Z,100293.46
2019-05-22T03:37:50.649Z,100295.23
2019-05-22T03:40:20.595Z,100295.78
2019-05-22T03:42:50.793Z,100302.61
2019-05-22T03:45:21.540Z,100307.98
2019-05-22T03:47:52.984Z,100307.91
2019-05-22T03:50:22.827Z,100306.48
2019-05-22T03:52:52.151Z,100301.39
2019-05-22T03:55:21.649Z,100304.08
2019-05-22T03:57:51.825Z,100305.42
2019-05-22T04:00:22.296Z,100311.09
2019-05-22T04:02:53.234Z,100305.08
2019-05-22T04:05:23.154Z,100312.07
2019-05-22T04:07:53.659Z,100310.02
2019-05-22T04:10:23.839Z,100317.96
2019-05-22T04:12:53.647Z,100306.89
2019-05-22T04:15:23.714Z,100319.22
2019-05-22T04:17:54.672Z,100325.66
2019-05-22T04:20:24.817Z,100324.52
2019-05-22T04:22:58.498Z,100321.72
2019-05-22T04:25:27.926Z,100330.33
2019-05-22T04:27:57.658Z,100325.11
2019-05-22T04:30:27.365Z,100336.20
2019-05-22T04:32:57.042Z,100331.84
2019-05-22T04:35:26.298Z,100330.07
2019-05-22T04:37:55.849Z,100336.66
2019-05-22T04:40:57.963Z,100334.02
2019-05-22T04:43:28.529Z,100341.97
2019-05-22T04:45:58.264Z,100339.20
2019-05-22T04:48:29.138Z,100346.77
2019-05-22T04:51:02.129Z,100356.10
2019-05-22T04:53:31.345Z,100358.67
2019-05-22T04:56:00.773Z,100357.03
2019-05-22T04:58:34.418Z,100358.87
2019-05-22T05:01:03.751Z,100357.73
2019-05-22T05:03:32.868Z,100364.47
2019-05-22T05:06:06.686Z,100365.98
2019-05-22T05:08:35.171Z,100379.48
2019-05-22T05:11:05.248Z,100382.59
2019-05-22T05:13:34.386Z,100380.83
2019-05-22T05:16:04.135Z,100383.44
2019-05-22T05:18:33.341Z,100381.46
2019-05-22T05:21:02.637Z,100373.17
2019-05-22T05:23:31.840Z,100379.28
2019-05-22T05:26:00.933Z,100384.98
2019-05-22T05:28:30.287Z,100388.69
2019-05-22T05:30:59.344Z,100386.45
2019-05-22T05:33:30.029Z,100388.30
2019-05-22T05:35:59.351Z,100394.62
2019-05-22T05:38:37.214Z,100397.52
2019-05-22T05:41:06.856Z,100401.05
2019-05-22T05:43:36.047Z,100396.80
2019-05-22T05:46:05.342Z,100405.80
2019-05-22T05:48:35.978Z,100410.73
2019-05-22T05:51:40.451Z,100405.47
2019-05-22T05:54:15.107Z,100403.20
2019-05-22T05:56:46.586Z,100407.95
2019-05-22T05:59:16.161Z,100412.79
2019-05-22T06:01:48.405Z,100407.38
2019-05-22T06:04:34.099Z,100417.48
2019-05-22T06:07:17.443Z,100418.53
2019-05-22T06:09:48.265Z,100420.30
2019-05-22T06:12:17.427Z,100422.07
2019-05-22T06:14:46.781Z,100419.34
2019-05-22T06:18:16.044Z,100421.09
2019-05-22T06:21:01.238Z,100421.18
2019-05-22T06:23:52.765Z,100421.23
2019-05-22T06:26:54.554Z,100427.98
2019-05-22T06:29:27.915Z,100425.44
2019-05-22T06:32:43.067Z,100422.16
2019-05-22T06:35:12.666Z,100424.42
2019-05-22T06:38:05.495Z,100433.14
2019-05-22T06:40:34.717Z,100436.83
2019-05-22T06:43:58.492Z,100435.19
2019-05-22T06:46:47.768Z,100436.52
2019-05-22T06:49:44.281Z,100440.62
2019-05-22T06:52:15.114Z,100433.72
2019-05-22T06:54:44.817Z,100438.85
2019-05-22T06:57:31.989Z,100440.70
2019-05-22T07:00:16.366Z,100440.37
2019-05-22T07:02:45.570Z,100437.05
2019-05-22T07:05:14.749Z,100440.56
2019-05-22T07:07:44.005Z,100445.33
2019-05-22T07:10:14.418Z,100451.96
2019-05-22T07:12:44.366Z,100458.05
2019-05-22T07:15:36.539Z,100458.05
2019-05-22T07:18:07.194Z,100463.70
2019-05-22T07:20:38.084Z,100459.13
2019-05-22T07:23:10.217Z,100461.38
2019-05-22T07:25:41.598Z,100459.58
2019-05-22T07:28:11.296Z,100465.52
2019-05-22T07:30:40.585Z,100464.75
2019-05-22T07:33:10.481Z,100470.70
2019-05-22T07:36:04.517Z,100472.88
2019-05-22T07:38:10.694Z,100477.73
2019-05-22T07:40:40.369Z,100477.90
2019-05-22T07:43:09.435Z,100476.31
2019-05-22T07:45:39.043Z,100481.89
2019-05-22T07:48:10.620Z,100485.27
2019-05-22T07:50:48.026Z,100472.77
2019-05-22T07:53:15.799Z,100481.98
2019-05-22T07:55:45.443Z,100482.27
2019-05-22T07:58:16.390Z,100477.61
2019-05-22T08:00:53.167Z,100479.38
2019-05-22T08:03:22.827Z,100476.50
2019-05-22T08:05:57.730Z,100479.44
2019-05-22T08:08:27.706Z,100469.94
2019-05-22T08:10:57.807Z,100473.20
2019-05-22T08:13:29.005Z,100469.38
2019-05-22T08:15:58.500Z,100479.16
2019-05-22T08:18:28.138Z,100476.88
2019-05-22T08:20:57.235Z,100476.02
2019-05-22T08:23:28.086Z,100474.83
2019-05-22T08:25:58.708Z,100475.23
2019-05-22T08:28:29.621Z,100474.61
2019-05-22T08:30:58.695Z,100475.97
2019-05-22T08:33:27.750Z,100477.84
2019-05-22T08:35:57.042Z,100490.39
2019-05-22T08:38:30.916Z,100487.67
2019-05-22T08:41:01.625Z,100489.08
2019-05-22T08:43:31.216Z,100493.20
2019-05-22T08:46:00.678Z,100491.56
2019-05-22T08:48:30.470Z,100487.39
2019-05-22T08:51:00.070Z,100486.17
2019-05-22T08:53:44.453Z,100491.91
2019-05-22T08:56:01.401Z,100497.14
2019-05-22T08:58:32.041Z,100498.53
2019-05-22T09:01:01.107Z,100498.47
2019-05-22T09:03:32.072Z,100499.47
2019-05-22T09:06:01.455Z,100495.88
2019-05-22T09:08:30.658Z,100495.42
2019-05-22T09:10:59.775Z,100500.96
2019-05-22T09:13:29.448Z,100497.11
2019-05-22T09:16:01.953Z,100499.59
2019-05-22T09:18:32.187Z,100503.77
2019-05-22T09:21:01.317Z,100503.28
2019-05-22T09:23:30.725Z,100502.33
2019-05-22T09:26:00.854Z,100501.72
2019-05-22T09:28:30.101Z,100504.63
2019-05-22T09:30:59.306Z,100508.41
2019-05-22T09:33:28.787Z,100504.75
2019-05-22T09:35:57.948Z,100511.05
2019-05-22T09:38:27.065Z,100509.98
2019-05-22T09:40:56.195Z,100513.27
2019-05-22T09:43:25.457Z,100515.86
2019-05-22T09:45:54.558Z,100513.67
2019-05-22T09:48:23.925Z,100514.33
2019-05-22T09:50:53.384Z,100513.03
2019-05-22T09:53:22.883Z,100511.81
2019-05-22T09:55:52.458Z,100513.59
2019-05-22T09:58:21.652Z,100509.48
2019-05-22T10:00:50.968Z,100515.19
2019-05-22T10:03:20.140Z,100514.02
2019-05-22T10:05:49.637Z,100510.38
2019-05-22T10:08:18.806Z,100515.23
2019-05-22T10:10:47.874Z,100514.95
2019-05-22T10:13:17.133Z,100513.66
2019-05-22T10:15:46.326Z,100518.27
2019-05-22T10:18:15.554Z,100522.38
2019-05-22T10:20:44.656Z,100515.77
2019-05-22T10:23:16.188Z,100521.85
2019-05-22T10:25:45.325Z,100519.91
2019-05-22T10:28:14.993Z,100522.38
2019-05-22T10:30:44.046Z,100524.38
2019-05-22T10:33:13.162Z,100523.27
2019-05-22T10:35:42.279Z,100524.39
2019-05-22T10:38:11.445Z,100519.95
2019-05-22T10:40:40.493Z,100523.03
2019-05-22T10:43:09.790Z,100522.50
2019-05-22T10:45:38.988Z,100527.68
2019-05-22T10:48:08.122Z,100526.62
2019-05-22T10:50:37.884Z,100527.33
2019-05-22T10:53:06.946Z,100523.80
2019-05-22T10:55:37.525Z,100526.31
2019-05-22T10:58:07.009Z,100525.84
2019-05-22T11:00:36.681Z,100521.34
2019-05-22T11:03:06.300Z,100520.58
2019-05-22T11:05:35.971Z,100516.13
2019-05-22T11:08:05.341Z,100520.67
2019-05-22T11:10:34.589Z,100515.06
2019-05-22T11:13:05.814Z,100440.84
2019-05-22T11:15:34.875Z,100518.77
2019-05-22T11:18:04.795Z,100511.27
2019-05-22T11:20:34.175Z,100515.64
2019-05-22T11:23:04.197Z,100515.81
2019-05-22T11:25:33.558Z,100513.83
2019-05-22T11:28:02.719Z,100519.43
2019-05-22T11:30:31.985Z,100519.50
2019-05-22T11:33:01.664Z,100515.47
2019-05-22T11:35:31.136Z,100512.32
2019-05-22T11:38:00.454Z,100509.86
2019-05-22T11:40:29.764Z,100517.05
2019-05-22T11:42:59.001Z,100514.94
2019-05-22T11:45:29.955Z,100514.69
2019-05-22T11:47:59.186Z,100509.12
2019-05-22T11:50:30.156Z,100515.72
2019-05-22T11:52:59.644Z,100510.29
2019-05-22T11:55:44.217Z,100509.33
2019-05-22T11:58:00.880Z,100510.07
2019-05-22T12:00:30.231Z,100501.14
2019-05-22T12:03:01.345Z,100509.12
2019-05-22T12:05:31.483Z,100504.48
2019-05-22T12:08:00.727Z,100500.25
2019-05-22T12:10:30.400Z,100505.93
2019-05-22T12:12:59.448Z,100506.09
2019-05-22T12:15:30.378Z,100500.69
2019-05-22T12:18:01.417Z,100506.80
2019-05-22T12:20:31.493Z,100502.34
2019-05-22T12:23:00.931Z,100498.43
2019-05-22T12:25:30.270Z,100502.01
2019-05-22T12:27:59.425Z,100502.65
2019-05-22T12:30:28.837Z,100500.48
2019-05-22T12:32:59.249Z,100505.60
2019-05-22T12:35:29.076Z,100504.38
2019-05-22T12:37:59.500Z,100507.50
2019-05-22T12:40:31.984Z,100505.72
2019-05-22T12:43:01.986Z,100502.93
2019-05-22T12:45:31.951Z,100498.33
2019-05-22T12:48:02.062Z,100502.21
2019-05-22T12:50:31.441Z,100501.20
2019-05-22T12:53:02.802Z,100499.08
2019-05-22T12:55:32.009Z,100491.52
2019-05-22T12:58:01.341Z,100496.56
2019-05-22T13:00:31.347Z,100494.08
2019-05-22T13:03:00.789Z,100493.28
2019-05-22T13:05:30.103Z,100490.36
2019-05-22T13:07:59.520Z,100498.58
2019-05-22T13:10:29.187Z,100495.41
2019-05-22T13:12:58.301Z,100488.84
2019-05-22T13:15:27.616Z,100490.80
2019-05-22T13:17:57.045Z,100497.30
2019-05-22T13:20:41.916Z,100503.99
2019-05-22T13:23:03.249Z,100501.96
2019-05-22T13:25:36.352Z,100506.24
2019-05-22T13:28:07.677Z,100507.84
2019-05-22T13:30:39.238Z,100507.78
2019-05-22T13:33:13.545Z,100515.48
2019-05-22T13:35:43.434Z,100511.58
2019-05-22T13:38:13.147Z,100505.53
2019-05-22T13:40:42.755Z,100504.36
2019-05-22T13:43:12.080Z,100507.21
2019-05-22T13:45:41.363Z,100501.96
2019-05-22T13:48:10.600Z,100497.56
2019-05-22T13:50:40.260Z,100512.74
2019-05-22T13:53:11.916Z,100505.86
2019-05-22T13:55:41.288Z,100505.75
2019-05-22T13:58:11.662Z,100503.62
2019-05-22T14:00:41.661Z,100500.56
2019-05-22T14:03:11.015Z,100505.78
2019-05-22T14:05:41.857Z,100500.43
2019-05-22T14:08:12.111Z,100508.53
2019-05-22T14:10:41.965Z,100505.55
2019-05-22T14:13:11.169Z,100508.73
2019-05-22T14:15:50.382Z,100500.70
2019-05-22T14:18:11.937Z,100500.05
2019-05-22T14:20:41.236Z,100499.31
2019-05-22T14:23:10.423Z,100497.87
2019-05-22T14:25:39.663Z,100490.41
2019-05-22T14:28:09.764Z,100490.41
2019-05-22T14:30:39.140Z,100486.45
2019-05-22T14:33:08.644Z,100484.11
2019-05-22T14:35:48.329Z,100485.51
2019-05-22T14:38:11.319Z,100482.76
2019-05-22T14:40:40.634Z,100482.25
2019-05-22T14:43:10.362Z,100484.19
2019-05-22T14:45:39.656Z,100480.88
2019-05-22T14:48:09.096Z,100475.84
2019-05-22T14:50:38.310Z,100473.76
2019-05-22T14:53:08.403Z,100472.30
2019-05-22T14:55:39.161Z,100467.98
2019-05-22T14:58:08.375Z,100467.73
2019-05-22T15:00:39.789Z,100464.25
2019-05-22T15:03:08.930Z,100472.20
2019-05-22T15:05:38.119Z,100465.14
2019-05-22T15:08:07.958Z,100465.17
2019-05-22T15:10:37.385Z,100465.23
2019-05-22T15:13:06.660Z,100469.61
2019-05-22T15:15:40.122Z,100467.80
2019-05-22T15:18:07.416Z,100468.48
2019-05-22T15:21:00.108Z,100467.25
2019-05-22T15:23:29.407Z,100468.03
2019-05-22T15:25:58.555Z,100466.33
2019-05-22T15:28:27.677Z,100464.89
2019-05-22T15:30:56.914Z,100468.23
2019-05-22T15:33:27.003Z,100468.23
2019-05-22T15:35:56.100Z,100468.81
2019-05-22T15:38:26.113Z,100471.45
2019-05-22T15:40:55.468Z,100465.25
2019-05-22T15:43:25.753Z,100468.91
2019-05-22T15:45:55.871Z,100468.81
2019-05-22T15:48:30.345Z,100466.38
2019-05-22T15:51:02.542Z,100465.52
2019-05-22T15:53:32.256Z,100466.76
2019-05-22T15:56:04.240Z,100464.05
2019-05-22T15:58:35.131Z,100471.14
2019-05-22T16:01:05.195Z,100467.86
2019-05-22T16:03:35.876Z,100465.34
2019-05-22T16:06:06.377Z,100461.55
2019-05-22T16:08:35.458Z,100465.59
2019-05-22T16:11:06.579Z,100466.41
2019-05-22T16:13:36.040Z,100457.63
2019-05-22T16:16:06.308Z,100462.39
2019-05-22T16:18:39.005Z,100467.67
2019-05-22T16:21:09.138Z,100466.80
2019-05-22T16:23:38.822Z,100464.73
2019-05-22T16:26:09.551Z,100467.67
2019-05-22T16:28:40.816Z,100458.05
2019-05-22T16:31:10.501Z,100454.34
2019-05-22T16:33:41.569Z,100458.34
2019-05-22T16:36:11.852Z,100464.64
2019-05-22T16:38:41.208Z,100464.64
2019-05-22T16:41:10.351Z,100455.83
2019-05-22T16:43:48.990Z,100460.41
2019-05-22T16:46:15.009Z,100462.38
2019-05-22T16:48:44.902Z,100459.62
2019-05-22T16:51:16.045Z,100459.62
2019-05-22T16:53:49.006Z,100468.17
2019-05-22T16:56:19.271Z,100461.64
2019-05-22T16:58:50.038Z,100468.72
2019-05-22T17:01:19.378Z,100470.17
2019-05-22T17:03:51.477Z,100473.55
2019-05-22T17:06:22.180Z,100464.23
2019-05-22T17:08:51.917Z,100464.52
2019-05-22T17:11:21.950Z,100460.80
2019-05-22T17:13:51.276Z,100472.25
2019-05-22T17:16:20.437Z,100466.56
2019-05-22T17:18:49.684Z,100469.44
2019-05-22T17:21:18.862Z,100466.78
2019-05-22T17:23:48.967Z,100462.12
2019-05-22T17:26:18.811Z,100465.27
2019-05-22T17:28:48.884Z,100469.78
2019-05-22T17:31:18.174Z,100466.41
2019-05-22T17:33:47.432Z,100468.14
2019-05-22T17:36:18.951Z,100462.31
2019-05-22T17:38:48.363Z,100466.29
2019-05-22T17:41:18.856Z,100470.15
2019-05-22T17:43:48.303Z,100461.88
2019-05-22T17:46:17.831Z,100459.62
2019-05-22T17:48:47.390Z,100468.29
2019-05-22T17:51:17.244Z,100469.38
2019-05-22T17:53:46.494Z,100465.59
2019-05-22T17:56:15.734Z,100474.75
2019-05-22T17:58:45.259Z,100474.50
2019-05-22T18:01:15.854Z,100475.48
2019-05-22T18:03:45.208Z,100482.44
2019-05-22T18:06:14.965Z,100477.00
2019-05-22T18:08:44.192Z,100479.20
2019-05-22T18:11:13.347Z,100482.27
2019-05-22T18:13:58.748Z,100486.99
2019-05-22T18:16:28.299Z,100485.91
2019-05-22T18:18:57.687Z,100485.49
2019-05-22T18:21:27.049Z,100488.20
2019-05-22T18:23:56.257Z,100485.70
2019-05-22T18:26:25.861Z,100486.38
2019-05-22T18:28:55.225Z,100494.13
2019-05-22T18:31:24.393Z,100497.02
2019-05-22T18:33:53.531Z,100502.08
2019-05-22T18:36:24.162Z,100505.27
2019-05-22T18:38:53.252Z,100511.11
2019-05-22T18:41:22.330Z,100505.16
2019-05-22T18:43:51.871Z,100507.78
2019-05-22T18:46:20.972Z,100506.97
2019-05-22T18:48:50.255Z,100511.53
2019-05-22T18:51:19.358Z,100509.48
2019-05-22T18:53:48.594Z,100515.94
2019-05-22T18:56:18.174Z,100507.81
2019-05-22T18:58:47.565Z,100511.92
2019-05-22T19:01:17.007Z,100507.93
2019-05-22T19:03:46.118Z,100512.17
2019-05-22T19:06:29.158Z,100512.58
2019-05-22T19:08:47.743Z,100516.92
2019-05-22T19:11:16.811Z,100507.53
2019-05-22T19:13:45.987Z,100511.55
2019-05-22T19:16:15.577Z,100513.38
2019-05-22T19:18:45.216Z,100517.99
2019-05-22T19:21:14.601Z,100514.45
2019-05-22T19:23:43.852Z,100524.60
2019-05-22T19:26:13.145Z,100524.53
2019-05-22T19:28:44.457Z,100521.95
2019-05-22T19:31:13.716Z,100534.03
2019-05-22T19:33:43.091Z,100530.84
2019-05-22T19:36:12.167Z,100531.37
2019-05-22T19:38:41.468Z,100536.91
2019-05-22T19:41:11.105Z,100540.50
2019-05-22T19:43:40.839Z,100535.63
2019-05-22T19:46:10.092Z,100540.83
2019-05-22T19:48:39.290Z,100538.02
2019-05-22T19:51:08.431Z,100539.32
2019-05-22T19:53:38.302Z,100542.56
2019-05-22T19:56:07.707Z,100547.17
2019-05-22T19:58:37.284Z,100550.54
2019-05-22T20:01:06.584Z,100552.45
2019-05-22T20:03:36.087Z,100559.19
2019-05-22T20:06:06.344Z,100563.23
2019-05-22T20:08:36.995Z,100560.67
2019-05-22T20:11:06.115Z,100558.98
2019-05-22T20:13:35.253Z,100557.06
2019-05-22T20:16:04.648Z,100563.00
2019-05-22T20:18:34.381Z,100563.88
2019-05-22T20:21:04.590Z,100562.75
2019-05-22T20:23:36.566Z,100564.97
2019-05-22T20:26:06.336Z,100559.45
2019-05-22T20:28:35.963Z,100561.34
2019-05-22T20:31:05.464Z,100565.19
2019-05-22T20:33:34.661Z,100567.86
2019-05-22T20:36:04.226Z,100568.07
2019-05-22T20:38:33.966Z,100569.30
2019-05-22T20:41:03.388Z,100569.42
2019-05-22T20:43:32.866Z,100581.33
2019-05-22T20:46:03.868Z,100576.69
2019-05-22T20:48:33.894Z,100575.92
2019-05-22T20:51:03.662Z,100570.23
2019-05-22T20:53:33.387Z,100576.77
2019-05-22T20:56:03.177Z,100578.00
2019-05-22T20:58:32.379Z,100572.50
2019-05-22T21:01:01.498Z,100571.78
2019-05-22T21:03:31.618Z,100568.33
2019-05-22T21:06:02.288Z,100571.91
2019-05-22T21:08:32.052Z,100572.52
2019-05-22T21:11:01.457Z,100575.53
2019-05-22T21:13:31.027Z,100573.98
2019-05-22T21:16:01.033Z,100570.49
2019-05-22T21:18:42.029Z,100564.58
2019-05-22T21:21:11.955Z,100569.88
2019-05-22T21:23:41.467Z,100566.93
2019-05-22T21:26:10.803Z,100575.30
2019-05-22T21:28:40.933Z,100574.56
2019-05-22T21:31:10.226Z,100570.13
2019-05-22T21:33:39.837Z,100571.12
2019-05-22T21:36:10.665Z,100564.91
2019-05-22T21:38:40.295Z,100569.48
2019-05-22T21:41:10.094Z,100563.87
2019-05-22T21:43:39.260Z,100571.12
2019-05-22T21:46:08.576Z,100564.37
2019-05-22T21:48:38.114Z,100562.72
2019-05-22T21:51:08.811Z,100564.86
2019-05-22T21:53:38.367Z,100568.59
2019-05-22T21:56:08.034Z,100566.50
2019-05-22T21:58:38.475Z,100566.61
2019-05-22T22:01:27.150Z,100566.31
2019-05-22T22:04:01.368Z,100572.83
2019-05-22T22:06:33.205Z,100568.54
2019-05-22T22:09:01.973Z,100566.35
2019-05-22T22:11:31.631Z,100562.72
2019-05-22T22:14:01.350Z,100563.86
2019-05-22T22:16:30.916Z,100564.86
2019-05-22T22:19:01.373Z,100571.12
2019-05-22T22:21:30.670Z,100572.48
2019-05-22T22:24:00.058Z,100570.73
2019-05-22T22:26:30.500Z,100572.17
2019-05-22T22:28:59.868Z,100572.86
2019-05-22T22:31:31.089Z,100575.11
2019-05-22T22:34:06.989Z,100577.59
2019-05-22T22:36:36.128Z,100578.56
2019-05-22T22:39:07.912Z,100577.27
2019-05-22T22:41:37.428Z,100581.32
2019-05-22T22:44:07.977Z,100583.36
2019-05-22T22:46:43.276Z,100581.82
2019-05-22T22:49:15.186Z,100575.75
2019-05-22T22:51:44.270Z,100586.75
2019-05-22T22:54:14.331Z,100588.84
2019-05-22T22:56:43.606Z,100584.23
2019-05-22T22:59:14.033Z,100582.25
2019-05-22T23:01:45.486Z,100589.13
2019-05-22T23:04:14.795Z,100589.08
2019-05-22T23:06:45.148Z,100585.61
2019-05-22T23:09:15.246Z,100581.83
2019-05-22T23:11:45.626Z,100580.56
2019-05-22T23:14:15.800Z,100581.45
2019-05-22T23:16:44.827Z,100584.03
2019-05-22T23:19:35.759Z,100584.30
2019-05-22T23:22:05.501Z,100582.19
2019-05-22T23:24:37.594Z,100578.42
2019-05-22T23:27:08.330Z,100580.01
2019-05-22T23:29:38.598Z,100574.26
2019-05-22T23:32:09.346Z,100574.32
2019-05-22T23:34:38.819Z,100574.07
2019-05-22T23:37:10.333Z,100576.45
2019-05-22T23:39:39.607Z,100571.27
2019-05-22T23:42:12.649Z,100580.17
2019-05-22T23:44:41.930Z,100584.88
2019-05-22T23:47:11.240Z,100573.08
2019-05-22T23:49:41.339Z,100578.83
2019-05-22T23:52:12.551Z,100578.05
2019-05-22T23:54:43.842Z,100578.74
2019-05-22T23:57:17.873Z,100583.92
2019-05-22T23:59:53.274Z,100592.63
